首页
METAR-TAF:

METAR-TAF

机场 :

利隆圭国际机场

利隆圭, 马拉维

纬度: 13-47S, 经度: 033-46E, 海拔: 1229米

当前天气观测

该预报发布于1小时和25分钟前的10:00 UTC
风速3节,风向
温度 21°C
湿度 46%
气压 1023 hPa
能见度10公里或以上
多云层高于2400英尺

METAR: FWKI 261000Z 09003KT 9999 BKN024 21/09 Q1023 NOSIG

时间: 13:25 (11:25 UTC)

预报

该预报发布于6小时和55分钟前的04:30 UTC
预报有效从26日的 06点(UTC)到 27日的 12点(UTC)
风速节,风向
能见度10公里或以上
多云层高于1500英尺
成为
从 26日的 06点(UTC)到 26日的 08点(UTC)
风速4节,风向东南
少量云层高于2000英尺
成为
从 26日的 08点(UTC)到 26日的 10点(UTC)
风速10节,风向南转南东
散云层高于2400英尺
成为
从 26日的 10点(UTC)到 26日的 12点(UTC)
散云层高于2800英尺
多云层高于8000英尺
从 26日的 1600点(UTC)
风速3节,风向东转东南
能见度10公里或以上
散云层高于3000英尺
短暂存在
从 27日的 03点(UTC)到 27日的 05点(UTC)
风速2节,风向多变
能見度: 8000
天空无云
轻雾
成为
从 27日的 06点(UTC)到 27日的 08点(UTC)
风速5节,风向
能见度10公里或以上
少量云层高于1800英尺

TAF: FWKI 260430Z 2606/2712 00000KT 9999 BKN015 BECMG 2606/2608 14004KT FEW020 BECMG 2608/2610 15010KT SCT024 BECMG 2610/2612 SCT028 BKN080 FM261600 12003KT 9999 SCT030 TEMPO 2703/2705 VRB02KT 8000 BR SKC BECMG 2706/2708 18005KT 9999 FEW018

超过4000个机场的气象观测和天气预报(METAR&TAF报告)。

可查询的气象台以黄色和红色小点在地图上表示。

将鼠标移到小点上方,可查看气象台名称。

然后点击查看天气观测和预报。

如需切换地图:点击带黑十字的绿色按钮放大地图;点击带横线的绿色按钮缩小地图;或者点击绿色箭头查看邻近地区的地图。


METAR-TAF: